Parchman, Mississippi
Current Conditions -  °F | °C
As of 3:55 PM on Tuesday 25 Nov 2014 (Local Time) from KRNV Reporting Station
Clear Clear  
Wind Chill: 48°   Ceiling: Unl
Heat Index: 48°   Visibility: 10mi
Dew Point: 26°   Wind: 0mph
Humidity: 41%   Direction: NA
Pressure: 30.18"   Gusts: NA
Location:  33.92°N, 90.5°W
Report Text: KRNV 252155Z AUTO 00000KT 10SM CLR 09/M04 A3018 RMK AO2 T00911036
Loading
Personal Weather Stations






























Interactive Weather Map New forecast layout! Learn more

10-Day Weather Forecast

Advertisements
Track Severe Weather on mobile